Time,TemperatureF,DewpointF,PressureIn,WindDirection,WindDirectionDegrees,WindSpeedMPH,WindSpeedGustMPH,Humidity,HourlyPrecipIn,Conditions,Clouds,dailyrainin,SolarRadiationWatts/m^2,SoftwareType,DateUTC
2013-07-06 00:03:00,71.3,68.0,30.05,South,175,0.0,-999.0,89,-99.99,,,0.00,0,weatherlink.com 1.10,2013-07-06 04:03:00,
2013-07-06 00:19:00,71.6,68.0,30.05,South,178,0.0,-999.0,88,-99.99,,,0.00,0,weatherlink.com 1.10,2013-07-06 04:19:00,
2013-07-06 00:33:00,71.1,68.0,30.05,South,176,0.0,-999.0,90,-99.99,,,0.00,0,weatherlink.com 1.10,2013-07-06 04:33:00,
2013-07-06 00:48:00,71.0,68.0,30.06,South,183,0.0,-999.0,90,-99.99,,,0.00,0,weatherlink.com 1.10,2013-07-06 04:48:00,
2013-07-06 01:03:00,70.6,68.0,30.05,South,183,0.0,-999.0,91,-99.99,,,0.00,0,weatherlink.com 1.10,2013-07-06 05:03:00,
2013-07-06 01:18:00,70.5,68.0,30.06,South,174,0.0,-999.0,91,-99.99,,,0.00,0,weatherlink.com 1.10,2013-07-06 05:18:00,
2013-07-06 01:33:00,70.2,68.0,30.06,South,174,0.0,-999.0,92,-99.99,,,0.00,0,weatherlink.com 1.10,2013-07-06 05:33:00,
2013-07-06 01:48:00,69.9,68.0,30.06,SSE,168,0.0,-999.0,93,-99.99,,,0.00,0,weatherlink.com 1.10,2013-07-06 05:48:00,
2013-07-06 02:03:00,70.1,68.0,30.05,South,173,0.0,-999.0,92,-99.99,,,0.00,0,weatherlink.com 1.10,2013-07-06 06:03:00,
2013-07-06 02:18:00,70.1,68.0,30.05,South,170,0.0,-999.0,92,-99.99,,,0.00,0,weatherlink.com 1.10,2013-07-06 06:18:00,
2013-07-06 02:33:00,70.0,68.0,30.05,SSE,152,0.0,-999.0,93,-99.99,,,0.00,0,weatherlink.com 1.10,2013-07-06 06:33:00,
2013-07-06 02:49:00,69.8,68.0,30.05,SSE,156,0.0,-999.0,93,-99.99,,,0.00,0,weatherlink.com 1.10,2013-07-06 06:49:00,
2013-07-06 03:03:00,69.7,68.0,30.05,SSE,151,0.0,-999.0,93,-99.99,,,0.00,0,weatherlink.com 1.10,2013-07-06 07:03:00,
2013-07-06 03:18:00,69.6,68.0,30.04,SSE,151,0.0,-999.0,93,-99.99,,,0.00,0,weatherlink.com 1.10,2013-07-06 07:18:00,
2013-07-06 03:33:00,69.5,68.0,30.04,SSE,151,0.0,-999.0,94,-99.99,,,0.00,0,weatherlink.com 1.10,2013-07-06 07:33:00,
2013-07-06 03:48:00,69.2,68.0,30.04,SSE,154,0.0,-999.0,94,-99.99,,,0.00,0,weatherlink.com 1.10,2013-07-06 07:48:00,
2013-07-06 04:03:00,69.0,68.0,30.04,SSE,156,0.0,-999.0,95,-99.99,,,0.00,0,weatherlink.com 1.10,2013-07-06 08:03:00,
2013-07-06 04:19:00,69.2,68.0,30.04,SE,143,4.0,-999.0,95,-99.99,,,0.00,0,weatherlink.com 1.10,2013-07-06 08:19:00,
2013-07-06 04:33:00,69.4,68.0,30.04,SSE,154,0.0,-999.0,95,-99.99,,,0.00,0,weatherlink.com 1.10,2013-07-06 08:33:00,
2013-07-06 04:48:00,69.1,67.0,30.03,SSE,155,0.0,-999.0,94,-99.99,,,0.00,0,weatherlink.com 1.10,2013-07-06 08:48:00,
2013-07-06 05:04:00,68.8,67.0,30.03,SSE,155,0.0,-999.0,95,-99.99,,,0.00,0,weatherlink.com 1.10,2013-07-06 09:04:00,
2013-07-06 05:18:00,68.9,68.0,30.03,SSE,155,0.0,-999.0,95,-99.99,,,0.00,0,weatherlink.com 1.10,2013-07-06 09:18:00,
2013-07-06 05:33:00,68.7,67.0,30.03,SSE,155,0.0,-999.0,95,-99.99,,,0.00,0,weatherlink.com 1.10,2013-07-06 09:33:00,
2013-07-06 05:48:00,68.4,67.0,30.03,SSE,155,0.0,-999.0,96,-99.99,,,0.00,0,weatherlink.com 1.10,2013-07-06 09:48:00,
2013-07-06 06:03:00,68.3,67.0,30.04,SSE,155,0.0,-999.0,96,-99.99,,,0.00,0,weatherlink.com 1.10,2013-07-06 10:03:00,
2013-07-06 06:18:00,68.1,67.0,30.04,SSE,155,0.0,-999.0,96,-99.99,,,0.00,0,weatherlink.com 1.10,2013-07-06 10:18:00,
2013-07-06 06:33:00,68.2,67.0,30.04,SSE,152,0.0,-999.0,96,-99.99,,,0.00,21,weatherlink.com 1.10,2013-07-06 10:33:00,
2013-07-06 06:49:00,68.4,68.0,30.04,SSE,152,0.0,-999.0,97,-99.99,,,0.00,37,weatherlink.com 1.10,2013-07-06 10:49:00,
2013-07-06 07:03:00,68.8,68.0,30.04,SSE,147,0.0,-999.0,97,-99.99,,,0.00,53,weatherlink.com 1.10,2013-07-06 11:03:00,
2013-07-06 07:18:00,69.1,68.0,30.04,SSE,154,0.0,-999.0,97,-99.99,,,0.00,51,weatherlink.com 1.10,2013-07-06 11:18:00,
2013-07-06 07:33:00,69.3,69.0,30.05,SSE,154,0.0,-999.0,97,-99.99,,,0.00,65,weatherlink.com 1.10,2013-07-06 11:33:00,
2013-07-06 07:48:00,69.6,69.0,30.05,South,174,0.0,-999.0,96,-99.99,,,0.00,88,weatherlink.com 1.10,2013-07-06 11:48:00,
2013-07-06 08:03:00,70.0,69.0,30.05,SSE,162,0.0,-999.0,96,-99.99,,,0.00,69,weatherlink.com 1.10,2013-07-06 12:03:00,
2013-07-06 08:18:00,70.4,69.0,30.05,South,183,0.0,-999.0,96,-99.99,,,0.00,97,weatherlink.com 1.10,2013-07-06 12:18:00,
2013-07-06 08:33:00,70.7,70.0,30.05,South,174,0.0,-999.0,96,-99.99,,,0.00,95,weatherlink.com 1.10,2013-07-06 12:33:00,
2013-07-06 08:48:00,71.1,70.0,30.05,SSE,152,0.0,-999.0,95,-99.99,,,0.00,139,weatherlink.com 1.10,2013-07-06 12:48:00,
2013-07-06 09:03:00,71.5,70.0,30.05,South,172,6.0,-999.0,95,-99.99,,,0.00,172,weatherlink.com 1.10,2013-07-06 13:03:00,
2013-07-06 09:18:00,72.3,71.0,30.05,South,181,5.0,-999.0,94,-99.99,,,0.00,272,weatherlink.com 1.10,2013-07-06 13:18:00,
2013-07-06 09:34:00,72.5,70.0,30.05,South,182,6.0,-999.0,93,-99.99,,,0.00,200,weatherlink.com 1.10,2013-07-06 13:34:00,
2013-07-06 09:48:00,72.7,70.0,30.05,South,179,5.0,-999.0,92,-99.99,,,0.00,190,weatherlink.com 1.10,2013-07-06 13:48:00,
2013-07-06 10:03:00,72.4,70.0,30.04,SSE,163,3.0,-999.0,92,-99.99,,,0.00,65,weatherlink.com 1.10,2013-07-06 14:03:00,
2013-07-06 10:18:00,70.7,68.0,30.04,South,185,10.0,-999.0,92,-99.99,,,0.04,67,weatherlink.com 1.10,2013-07-06 14:18:00,
2013-07-06 10:33:00,69.7,68.0,30.04,SSW,201,5.0,-999.0,95,-99.99,,,0.22,76,weatherlink.com 1.10,2013-07-06 14:33:00,
2013-07-06 10:48:00,70.6,70.0,30.04,SSW,196,1.0,-999.0,96,-99.99,,,0.22,179,weatherlink.com 1.10,2013-07-06 14:48:00,
2013-07-06 11:04:00,71.5,70.0,30.04,SSW,201,2.0,-999.0,96,-99.99,,,0.23,100,weatherlink.com 1.10,2013-07-06 15:04:00,
2013-07-06 11:18:00,72.0,71.0,30.04,SSE,168,7.0,-999.0,95,-99.99,,,0.23,350,weatherlink.com 1.10,2013-07-06 15:18:00,
2013-07-06 11:33:00,72.4,71.0,30.04,SE,143,7.0,-999.0,94,-99.99,,,0.23,350,weatherlink.com 1.10,2013-07-06 15:33:00,
2013-07-06 11:48:00,72.6,70.0,30.04,South,170,4.0,-999.0,92,-99.99,,,0.23,315,weatherlink.com 1.10,2013-07-06 15:48:00,
2013-07-06 12:04:00,73.1,70.0,30.04,SSE,156,4.0,-999.0,91,-99.99,,,0.23,269,weatherlink.com 1.10,2013-07-06 16:04:00,
2013-07-06 12:18:00,73.1,70.0,30.04,South,181,6.0,-999.0,91,-99.99,,,0.23,165,weatherlink.com 1.10,2013-07-06 16:18:00,
2013-07-06 12:33:00,72.7,70.0,30.04,SE,143,1.0,-999.0,91,-99.99,,,0.23,221,weatherlink.com 1.10,2013-07-06 16:33:00,
2013-07-06 14:03:00,75.3,70.0,30.02,South,189,11.0,-999.0,84,-99.99,,,0.23,374,weatherlink.com 1.10,2013-07-06 18:03:00,
2013-07-06 14:34:00,72.8,70.0,30.02,West,266,5.0,-999.0,89,-99.99,,,0.23,517,weatherlink.com 1.10,2013-07-06 18:34:00,
2013-07-06 15:03:00,74.1,70.0,30.01,North,350,4.0,-999.0,86,-99.99,,,0.23,446,weatherlink.com 1.10,2013-07-06 19:03:00,
2013-07-06 15:33:00,73.3,69.0,30.01,NNW,327,3.0,-999.0,87,-99.99,,,0.23,376,weatherlink.com 1.10,2013-07-06 19:33:00,
2013-07-06 15:48:00,73.1,69.0,30.00,West,259,4.0,-999.0,87,-99.99,,,0.23,220,weatherlink.com 1.10,2013-07-06 19:48:00,
2013-07-06 16:03:00,73.8,70.0,29.99,NE,48,2.0,-999.0,87,-99.99,,,0.23,188,weatherlink.com 1.10,2013-07-06 20:03:00,
2013-07-06 16:19:00,74.2,70.0,30.00,WSW,257,0.0,-999.0,85,-99.99,,,0.23,206,weatherlink.com 1.10,2013-07-06 20:19:00,
2013-07-06 16:48:00,74.4,70.0,29.99,SSW,211,3.0,-999.0,87,-99.99,,,0.23,234,weatherlink.com 1.10,2013-07-06 20:48:00,
2013-07-06 17:33:00,74.3,71.0,29.98,SW,230,3.0,-999.0,88,-99.99,,,0.23,97,weatherlink.com 1.10,2013-07-06 21:33:00,
2013-07-06 17:48:00,74.4,70.0,29.98,SW,219,5.0,-999.0,85,-99.99,,,0.23,158,weatherlink.com 1.10,2013-07-06 21:48:00,
2013-07-06 18:03:00,75.0,70.0,29.97,SSW,206,5.0,-999.0,85,-99.99,,,0.23,257,weatherlink.com 1.10,2013-07-06 22:03:00,
2013-07-06 18:48:00,74.3,70.0,29.97,SSW,210,3.0,-999.0,86,-99.99,,,0.23,169,weatherlink.com 1.10,2013-07-06 22:48:00,
2013-07-06 19:03:00,74.1,70.0,29.97,SW,235,4.0,-999.0,86,-99.99,,,0.23,134,weatherlink.com 1.10,2013-07-06 23:03:00,
2013-07-06 19:18:00,73.7,69.0,29.97,SSW,202,6.0,-999.0,85,-99.99,,,0.23,114,weatherlink.com 1.10,2013-07-06 23:18:00,
2013-07-06 19:33:00,73.4,69.0,29.97,SW,220,5.0,-999.0,86,-99.99,,,0.23,93,weatherlink.com 1.10,2013-07-06 23:33:00,
2013-07-06 19:48:00,73.3,69.0,29.97,SSW,210,3.0,-999.0,87,-99.99,,,0.23,77,weatherlink.com 1.10,2013-07-06 23:48:00,
2013-07-06 20:03:00,73.2,70.0,29.98,SSW,209,4.0,-999.0,88,-99.99,,,0.23,62,weatherlink.com 1.10,2013-07-07 00:03:00,
2013-07-06 20:18:00,73.0,70.0,29.97,South,190,3.0,-999.0,89,-99.99,,,0.23,42,weatherlink.com 1.10,2013-07-07 00:18:00,
2013-07-06 20:33:00,72.7,69.0,29.97,SW,214,5.0,-999.0,89,-99.99,,,0.23,26,weatherlink.com 1.10,2013-07-07 00:33:00,
2013-07-06 21:18:00,71.1,68.0,29.98,South,179,4.0,-999.0,91,-99.99,,,0.23,5,weatherlink.com 1.10,2013-07-07 01:18:00,
2013-07-06 21:48:00,70.9,68.0,29.99,SSW,197,3.0,-999.0,91,-99.99,,,0.23,0,weatherlink.com 1.10,2013-07-07 01:48:00,
2013-07-06 22:03:00,70.8,68.0,30.00,SSW,209,2.0,-999.0,91,-99.99,,,0.23,0,weatherlink.com 1.10,2013-07-07 02:03:00,
2013-07-06 22:18:00,70.6,68.0,30.00,South,189,4.0,-999.0,92,-99.99,,,0.23,0,weatherlink.com 1.10,2013-07-07 02:18:00,
2013-07-06 23:03:00,69.8,68.0,30.02,SSW,192,2.0,-999.0,94,-99.99,,,0.23,0,weatherlink.com 1.10,2013-07-07 03:03:00,
2013-07-06 23:18:00,69.4,68.0,30.02,South,191,3.0,-999.0,95,-99.99,,,0.23,0,weatherlink.com 1.10,2013-07-07 03:18:00,
2013-07-06 23:33:00,69.5,68.0,30.02,SSW,204,7.0,-999.0,95,-99.99,,,0.23,0,weatherlink.com 1.10,2013-07-07 03:33:00,